Time,TemperatureF,DewpointF,PressureIn,WindDirection,WindDirectionDegrees,WindSpeedMPH,WindSpeedGustMPH,Humidity,HourlyPrecipIn,Conditions,Clouds,dailyrainin,SoftwareType,DateUTC
2013-07-18 00:00:00,74.5,73.3,30.09,SE,139,0.0,0.0,96,0.00,,,3.49,Wunderground v.1.15,2013-07-18 04:00:00,
2013-07-18 00:04:00,74.4,73.2,30.08,SE,139,0.0,0.0,96,0.00,,,0.00,Wunderground v.1.15,2013-07-18 04:04:00,
2013-07-18 00:09:00,74.4,73.2,30.08,SE,138,0.0,0.0,96,0.00,,,0.00,Wunderground v.1.15,2013-07-18 04:09:00,
2013-07-18 00:19:00,74.3,73.1,30.09,SE,139,0.0,0.0,96,0.00,,,0.00,Wunderground v.1.15,2013-07-18 04:19:00,
2013-07-18 00:25:00,74.2,73.0,30.09,SE,139,0.0,0.0,96,0.00,,,0.00,Wunderground v.1.15,2013-07-18 04:25:00,
2013-07-18 00:34:00,74.5,73.3,30.08,NW,309,0.0,0.0,96,0.00,,,0.00,Wunderground v.1.15,2013-07-18 04:34:00,
2013-07-18 00:44:00,74.6,73.4,30.08,NW,309,0.0,0.0,96,0.00,,,0.00,Wunderground v.1.15,2013-07-18 04:44:00,
2013-07-18 00:50:00,74.7,73.5,30.08,NNE,13,0.0,1.0,96,0.00,,,0.00,Wunderground v.1.15,2013-07-18 04:50:00,
2013-07-18 00:55:00,74.7,73.5,30.08,NNE,15,0.0,1.0,96,0.00,,,0.00,Wunderground v.1.15,2013-07-18 04:55:00,
2013-07-18 01:00:00,74.7,73.5,30.08,NNE,15,0.0,0.0,96,0.00,,,0.00,Wunderground v.1.15,2013-07-18 05:00:00,
2013-07-18 01:10:00,74.6,73.4,30.08,NNE,13,0.0,0.0,96,0.00,,,0.00,Wunderground v.1.15,2013-07-18 05:10:00,
2013-07-18 01:20:00,74.6,73.4,30.08,NNE,15,0.0,0.0,96,0.00,,,0.00,Wunderground v.1.15,2013-07-18 05:20:00,
2013-07-18 01:29:00,74.7,73.5,30.08,NNE,15,0.0,0.0,96,0.00,,,0.01,Wunderground v.1.15,2013-07-18 05:29:00,
2013-07-18 01:40:00,74.8,73.6,30.08,NNE,13,0.0,0.0,96,0.00,,,0.01,Wunderground v.1.15,2013-07-18 05:40:00,
2013-07-18 01:50:00,74.8,73.6,30.08,North,349,0.0,0.0,96,0.00,,,0.01,Wunderground v.1.15,2013-07-18 05:50:00,
2013-07-18 02:00:00,74.6,73.4,30.08,NNW,339,0.0,0.0,96,0.00,,,0.01,Wunderground v.1.15,2013-07-18 06:00:00,
2013-07-18 02:09:00,74.6,73.7,30.07,NNW,339,0.0,0.0,97,0.00,,,0.01,Wunderground v.1.15,2013-07-18 06:09:00,
2013-07-18 02:19:00,74.5,73.3,30.07,North,358,0.0,0.0,96,0.00,,,0.01,Wunderground v.1.15,2013-07-18 06:19:00,
2013-07-18 02:25:00,74.4,73.2,30.07,North,360,0.0,0.0,96,0.00,,,0.01,Wunderground v.1.15,2013-07-18 06:25:00,
2013-07-18 02:34:00,74.3,73.4,30.07,North,358,0.0,0.0,97,0.00,,,0.01,Wunderground v.1.15,2013-07-18 06:34:00,
2013-07-18 02:44:00,74.4,73.5,30.07,NE,49,0.0,0.0,97,0.00,,,0.01,Wunderground v.1.15,2013-07-18 06:44:00,
2013-07-18 02:55:00,74.6,73.7,30.06,ENE,67,0.0,0.0,97,0.00,,,0.01,Wunderground v.1.15,2013-07-18 06:55:00,
2013-07-18 03:00:00,74.8,73.9,30.06,NE,44,0.0,0.0,97,0.00,,,0.01,Wunderground v.1.15,2013-07-18 07:00:00,
2013-07-18 03:09:00,74.9,74.0,30.06,NE,42,0.0,0.0,97,0.00,,,0.01,Wunderground v.1.15,2013-07-18 07:09:00,
2013-07-18 03:15:00,74.8,73.9,30.06,NE,42,0.0,0.0,97,0.00,,,0.01,Wunderground v.1.15,2013-07-18 07:15:00,
2013-07-18 03:25:00,74.6,73.7,30.06,NE,36,0.0,0.0,97,0.00,,,0.01,Wunderground v.1.15,2013-07-18 07:25:00,
2013-07-18 03:34:00,74.6,73.7,30.05,NNE,26,0.0,0.0,97,0.00,,,0.01,Wunderground v.1.15,2013-07-18 07:34:00,
2013-07-18 03:39:00,74.4,73.5,30.05,NNE,26,0.0,0.0,97,0.00,,,0.01,Wunderground v.1.15,2013-07-18 07:39:00,
2013-07-18 03:49:00,74.4,73.5,30.06,NNE,26,0.0,0.0,97,0.00,,,0.01,Wunderground v.1.15,2013-07-18 07:49:00,
2013-07-18 04:00:00,74.4,73.5,30.05,NNE,22,0.0,0.0,97,0.00,,,0.01,Wunderground v.1.15,2013-07-18 08:00:00,
2013-07-18 04:10:00,74.3,73.4,30.05,NNE,30,0.0,0.0,97,0.00,,,0.01,Wunderground v.1.15,2013-07-18 08:10:00,
2013-07-18 04:20:00,74.4,73.5,30.05,NNE,31,0.0,0.0,97,0.00,,,0.01,Wunderground v.1.15,2013-07-18 08:20:00,
2013-07-18 04:29:00,74.5,73.6,30.06,NNE,31,0.0,0.0,97,0.00,,,0.01,Wunderground v.1.15,2013-07-18 08:29:00,
2013-07-18 04:40:00,74.6,73.7,30.06,NNE,30,0.0,0.0,97,0.00,,,0.01,Wunderground v.1.15,2013-07-18 08:40:00,
2013-07-18 04:50:00,74.6,73.7,30.06,NNE,30,0.0,0.0,97,0.00,,,0.01,Wunderground v.1.15,2013-07-18 08:50:00,
2013-07-18 05:00:00,74.8,73.9,30.06,ESE,116,0.0,0.0,97,0.00,,,0.01,Wunderground v.1.15,2013-07-18 09:00:00,
2013-07-18 05:09:00,74.6,73.7,30.05,ESE,116,0.0,0.0,97,0.00,,,0.01,Wunderground v.1.15,2013-07-18 09:09:00,
2013-07-18 05:19:00,74.5,73.6,30.06,ESE,115,0.0,0.0,97,0.00,,,0.01,Wunderground v.1.15,2013-07-18 09:19:00,
2013-07-18 05:25:00,74.5,73.6,30.06,ESE,116,0.0,0.0,97,0.00,,,0.01,Wunderground v.1.15,2013-07-18 09:25:00,
2013-07-18 05:34:00,74.4,73.5,30.06,ESE,115,0.0,0.0,97,0.00,,,0.01,Wunderground v.1.15,2013-07-18 09:34:00,
2013-07-18 05:44:00,74.2,73.3,30.07,ESE,105,0.0,0.0,97,0.00,,,0.01,Wunderground v.1.15,2013-07-18 09:44:00,
2013-07-18 05:55:00,74.1,73.2,30.07,ESE,106,0.0,0.0,97,0.00,,,0.01,Wunderground v.1.15,2013-07-18 09:55:00,
2013-07-18 06:00:00,74.3,73.4,30.07,ESE,105,0.0,0.0,97,0.00,,,0.01,Wunderground v.1.15,2013-07-18 10:00:00,
2013-07-18 06:10:00,74.4,73.5,30.07,ESE,105,0.0,0.0,97,0.00,,,0.01,Wunderground v.1.15,2013-07-18 10:10:00,
2013-07-18 06:19:00,74.4,73.5,30.08,ESE,105,0.0,0.0,97,0.00,,,0.01,Wunderground v.1.15,2013-07-18 10:19:00,
2013-07-18 06:29:00,74.6,73.7,30.08,ESE,109,0.0,0.0,97,0.00,,,0.01,Wunderground v.1.15,2013-07-18 10:29:00,
2013-07-18 06:40:00,75.1,74.2,30.08,ENE,58,1.0,3.0,97,0.00,,,0.01,Wunderground v.1.15,2013-07-18 10:40:00,
2013-07-18 06:50:00,75.2,74.0,30.09,East,82,1.0,1.0,96,0.00,,,0.01,Wunderground v.1.15,2013-07-18 10:50:00,
2013-07-18 07:00:00,75.4,74.2,30.09,ENE,75,1.0,1.0,96,0.00,,,0.01,Wunderground v.1.15,2013-07-18 11:00:00,
2013-07-18 07:09:00,75.8,74.6,30.08,ENE,78,1.0,1.0,96,0.00,,,0.01,Wunderground v.1.15,2013-07-18 11:09:00,
2013-07-18 07:19:00,76.0,74.5,30.09,East,99,0.0,1.0,95,0.00,,,0.01,Wunderground v.1.15,2013-07-18 11:19:00,
2013-07-18 07:25:00,76.2,74.3,30.08,NE,49,1.0,2.0,94,0.00,,,0.01,Wunderground v.1.15,2013-07-18 11:25:00,
2013-07-18 07:35:00,76.7,74.5,30.08,East,96,1.0,2.0,93,0.00,,,0.01,Wunderground v.1.15,2013-07-18 11:35:00,
2013-07-18 07:44:00,76.8,74.9,30.09,ESE,106,1.0,1.0,94,0.00,,,0.01,Wunderground v.1.15,2013-07-18 11:44:00,
2013-07-18 07:54:00,77.0,74.8,30.09,NE,51,1.0,5.0,93,0.00,,,0.01,Wunderground v.1.15,2013-07-18 11:54:00,
2013-07-18 08:00:00,77.0,74.5,30.10,East,82,1.0,1.0,92,0.00,,,0.01,Wunderground v.1.15,2013-07-18 12:00:00,
2013-07-18 08:09:00,77.1,74.3,30.10,NE,49,2.0,3.0,91,0.00,,,0.01,Wunderground v.1.15,2013-07-18 12:09:00,
2013-07-18 08:15:00,77.1,74.3,30.10,East,84,2.0,3.0,91,0.00,,,0.01,Wunderground v.1.15,2013-07-18 12:15:00,
2013-07-18 08:24:00,77.0,74.2,30.10,ENE,69,2.0,2.0,91,0.00,,,0.01,Wunderground v.1.15,2013-07-18 12:24:00,
2013-07-18 08:34:00,76.7,73.5,30.11,SSW,201,2.0,3.0,90,0.00,,,0.01,Wunderground v.1.15,2013-07-18 12:34:00,
2013-07-18 08:45:00,76.3,72.8,30.12,NE,39,2.0,3.0,89,0.00,,,0.01,Wunderground v.1.15,2013-07-18 12:45:00,
2013-07-18 08:54:00,76.2,72.7,30.12,ESE,111,2.0,2.0,89,0.00,,,0.01,Wunderground v.1.15,2013-07-18 12:54:00,
2013-07-18 09:00:00,76.2,73.1,30.11,ESE,105,1.0,1.0,90,0.00,,,0.01,Wunderground v.1.15,2013-07-18 13:00:00,
2013-07-18 09:10:00,76.3,73.5,30.12,East,101,2.0,2.0,91,0.00,,,0.01,Wunderground v.1.15,2013-07-18 13:10:00,
2013-07-18 09:19:00,76.2,73.7,30.12,South,169,2.0,2.0,92,0.00,,,0.01,Wunderground v.1.15,2013-07-18 13:19:00,
2013-07-18 09:30:00,76.2,73.7,30.12,SE,129,3.0,3.0,92,0.00,,,0.02,Wunderground v.1.15,2013-07-18 13:30:00,
2013-07-18 09:40:00,76.1,73.6,30.12,ESE,109,2.0,2.0,92,0.07,,,0.03,Wunderground v.1.15,2013-07-18 13:40:00,
2013-07-18 09:49:00,75.6,73.1,30.12,ESE,104,0.0,0.0,92,0.07,,,0.05,Wunderground v.1.15,2013-07-18 13:49:00,
2013-07-18 10:00:00,75.2,72.7,30.13,SE,131,1.0,1.0,92,0.08,,,0.06,Wunderground v.1.15,2013-07-18 14:00:00,
2013-07-18 10:09:00,75.5,73.0,30.13,SW,227,0.0,1.0,92,0.21,,,0.08,Wunderground v.1.15,2013-07-18 14:09:00,
2013-07-18 10:15:00,75.6,73.1,30.13,SE,124,0.0,1.0,92,0.12,,,0.09,Wunderground v.1.15,2013-07-18 14:15:00,
2013-07-18 10:24:00,75.5,72.7,30.12,SE,142,0.0,0.0,91,0.21,,,0.12,Wunderground v.1.15,2013-07-18 14:24:00,
2013-07-18 10:34:00,75.4,72.6,30.13,SE,143,0.0,1.0,91,0.28,,,0.15,Wunderground v.1.15,2013-07-18 14:34:00,
2013-07-18 10:44:00,75.3,72.8,30.11,SSE,148,0.0,0.0,92,0.19,,,0.18,Wunderground v.1.15,2013-07-18 14:44:00,
2013-07-18 10:50:00,75.3,72.8,30.11,SSE,148,0.0,0.0,92,0.09,,,0.19,Wunderground v.1.15,2013-07-18 14:50:00,
2013-07-18 11:00:00,75.3,73.1,30.11,SSE,148,0.0,0.0,93,0.12,,,0.21,Wunderground v.1.15,2013-07-18 15:00:00,
2013-07-18 11:09:00,75.4,73.2,30.11,SSE,148,0.0,0.0,93,0.12,,,0.23,Wunderground v.1.15,2013-07-18 15:09:00,
2013-07-18 11:19:00,75.2,73.4,30.11,SSE,148,0.0,0.0,94,0.15,,,0.25,Wunderground v.1.15,2013-07-18 15:19:00,
2013-07-18 11:29:00,75.1,73.3,30.12,SSE,148,0.0,0.0,94,0.13,,,0.28,Wunderground v.1.15,2013-07-18 15:29:00,
2013-07-18 11:35:00,75.3,73.5,30.12,SSE,148,0.0,0.0,94,0.09,,,0.29,Wunderground v.1.15,2013-07-18 15:35:00,
2013-07-18 11:44:00,75.9,74.4,30.12,SE,131,0.0,0.0,95,0.06,,,0.29,Wunderground v.1.15,2013-07-18 15:44:00,
2013-07-18 11:54:00,76.8,75.3,30.12,SE,131,0.0,0.0,95,0.04,,,0.30,Wunderground v.1.15,2013-07-18 15:54:00,
2013-07-18 12:00:00,77.3,75.8,30.13,SE,135,0.0,0.0,95,0.04,,,0.30,Wunderground v.1.15,2013-07-18 16:00:00,
2013-07-18 12:09:00,78.3,76.7,30.13,SSE,148,0.0,0.0,95,0.00,,,0.30,Wunderground v.1.15,2013-07-18 16:09:00,
2013-07-18 12:20:00,78.7,76.8,30.12,SE,127,0.0,3.0,94,0.00,,,0.30,Wunderground v.1.15,2013-07-18 16:20:00,
2013-07-18 12:29:00,77.9,75.4,30.11,SE,143,3.0,5.0,92,0.00,,,0.30,Wunderground v.1.15,2013-07-18 16:29:00,
2013-07-18 12:39:00,77.5,74.7,30.12,SE,134,3.0,3.0,91,0.00,,,0.30,Wunderground v.1.15,2013-07-18 16:39:00,
2013-07-18 12:49:00,77.7,74.5,30.12,SE,142,3.0,4.0,90,0.00,,,0.30,Wunderground v.1.15,2013-07-18 16:49:00,
2013-07-18 12:55:00,77.7,74.2,30.12,SE,136,3.0,4.0,89,0.00,,,0.30,Wunderground v.1.15,2013-07-18 16:55:00,
2013-07-18 13:00:00,77.9,74.4,30.12,SE,141,3.0,3.0,89,0.00,,,0.30,Wunderground v.1.15,2013-07-18 17:00:00,
2013-07-18 13:10:00,78.3,75.1,30.11,East,95,3.0,3.0,90,0.00,,,0.30,Wunderground v.1.15,2013-07-18 17:10:00,
2013-07-18 13:19:00,78.5,75.0,30.11,ESE,103,2.0,2.0,89,0.00,,,0.30,Wunderground v.1.15,2013-07-18 17:19:00,
2013-07-18 13:29:00,78.8,75.3,30.11,SE,141,1.0,1.0,89,0.00,,,0.30,Wunderground v.1.15,2013-07-18 17:29:00,
2013-07-18 13:40:00,79.3,75.8,30.11,SSE,156,1.0,2.0,89,0.00,,,0.30,Wunderground v.1.15,2013-07-18 17:40:00,
2013-07-18 13:49:00,80.1,76.2,30.10,SE,141,1.0,1.0,88,0.00,,,0.30,Wunderground v.1.15,2013-07-18 17:49:00,
2013-07-18 14:00:00,80.7,76.5,30.10,SE,142,1.0,1.0,87,0.00,,,0.30,Wunderground v.1.15,2013-07-18 18:00:00,
2013-07-18 14:09:00,80.9,76.3,30.10,SE,136,1.0,1.0,86,0.00,,,0.30,Wunderground v.1.15,2013-07-18 18:09:00,
2013-07-18 14:20:00,80.7,75.8,30.10,East,93,1.0,1.0,85,0.00,,,0.30,Wunderground v.1.15,2013-07-18 18:20:00,
2013-07-18 14:29:00,81.1,76.2,30.09,NE,46,1.0,1.0,85,0.00,,,0.30,Wunderground v.1.15,2013-07-18 18:29:00,
2013-07-18 14:39:00,81.4,76.5,30.09,ESE,122,1.0,1.0,85,0.00,,,0.30,Wunderground v.1.15,2013-07-18 18:39:00,
2013-07-18 14:49:00,81.9,77.6,30.09,ESE,121,1.0,2.0,87,0.00,,,0.30,Wunderground v.1.15,2013-07-18 18:49:00,
2013-07-18 14:55:00,82.1,77.5,30.08,NE,46,1.0,2.0,86,0.00,,,0.30,Wunderground v.1.15,2013-07-18 18:55:00,
2013-07-18 15:00:00,82.4,78.1,30.08,NE,41,1.0,2.0,87,0.00,,,0.30,Wunderground v.1.15,2013-07-18 19:00:00,
2013-07-18 15:10:00,83.3,78.3,30.08,East,91,2.0,3.0,85,0.00,,,0.30,Wunderground v.1.15,2013-07-18 19:10:00,
2013-07-18 15:19:00,83.8,78.4,30.08,East,91,2.0,3.0,84,0.00,,,0.30,Wunderground v.1.15,2013-07-18 19:19:00,
2013-07-18 15:29:00,84.2,78.8,30.08,North,8,2.0,3.0,84,0.00,,,0.30,Wunderground v.1.15,2013-07-18 19:29:00,
2013-07-18 15:35:00,84.3,78.6,30.08,ENE,68,2.0,3.0,83,0.00,,,0.30,Wunderground v.1.15,2013-07-18 19:35:00,
2013-07-18 15:45:00,83.6,78.2,30.08,SSE,153,3.0,4.0,84,0.00,,,0.30,Wunderground v.1.15,2013-07-18 19:45:00,
2013-07-18 15:54:00,83.1,78.1,30.08,East,96,3.0,4.0,85,0.00,,,0.30,Wunderground v.1.15,2013-07-18 19:54:00,
2013-07-18 16:00:00,83.3,78.3,30.08,ENE,77,2.0,2.0,85,0.00,,,0.30,Wunderground v.1.15,2013-07-18 20:00:00,
2013-07-18 16:09:00,83.1,77.4,30.08,SSE,153,2.0,2.0,83,0.00,,,0.30,Wunderground v.1.15,2013-07-18 20:09:00,
2013-07-18 16:20:00,83.2,78.2,30.08,ESE,122,1.0,2.0,85,0.00,,,0.30,Wunderground v.1.15,2013-07-18 20:20:00,
2013-07-18 16:25:00,83.1,78.1,30.08,ESE,115,1.0,2.0,85,0.00,,,0.30,Wunderground v.1.15,2013-07-18 20:25:00,
2013-07-18 16:34:00,83.1,78.1,30.07,SE,125,1.0,1.0,85,0.00,,,0.30,Wunderground v.1.15,2013-07-18 20:34:00,
2013-07-18 16:44:00,83.0,78.0,30.07,ESE,114,2.0,4.0,85,0.00,,,0.30,Wunderground v.1.15,2013-07-18 20:44:00,
2013-07-18 16:55:00,83.0,78.0,30.07,East,91,1.0,2.0,85,0.00,,,0.30,Wunderground v.1.15,2013-07-18 20:55:00,
2013-07-18 17:00:00,83.0,78.0,30.07,ENE,72,1.0,2.0,85,0.00,,,0.30,Wunderground v.1.15,2013-07-18 21:00:00,
2013-07-18 17:10:00,80.7,73.2,30.08,North,360,2.0,5.0,78,0.00,,,0.30,Wunderground v.1.15,2013-07-18 21:10:00,
2013-07-18 17:19:00,76.9,71.7,30.09,NNE,15,3.0,5.0,84,0.00,,,0.30,Wunderground v.1.15,2013-07-18 21:19:00,
2013-07-18 17:29:00,74.8,71.3,30.10,WNW,283,3.0,3.0,89,3.89,,,0.36,Wunderground v.1.15,2013-07-18 21:29:00,
2013-07-18 17:35:00,74.2,71.1,30.10,North,1,2.0,3.0,90,0.74,,,0.50,Wunderground v.1.15,2013-07-18 21:35:00,
2013-07-18 17:45:00,72.9,70.8,30.09,NW,322,3.0,5.0,93,2.80,,,0.95,Wunderground v.1.15,2013-07-18 21:45:00,
2013-07-18 17:54:00,72.3,70.5,30.08,WNW,288,2.0,3.0,94,0.18,,,1.22,Wunderground v.1.15,2013-07-18 21:54:00,
2013-07-18 18:00:00,72.2,70.7,30.07,NW,323,2.0,2.0,95,0.08,,,1.22,Wunderground v.1.15,2013-07-18 22:00:00,
2013-07-18 18:09:00,72.3,70.8,30.08,WNW,285,1.0,1.0,95,0.04,,,1.22,Wunderground v.1.15,2013-07-18 22:09:00,
2013-07-18 18:20:00,72.5,71.0,30.09,SW,225,0.0,0.0,95,0.00,,,1.23,Wunderground v.1.15,2013-07-18 22:20:00,
2013-07-18 18:29:00,72.6,71.1,30.09,SE,142,0.0,0.0,95,0.06,,,1.24,Wunderground v.1.15,2013-07-18 22:29:00,
2013-07-18 18:39:00,72.7,71.5,30.10,SW,225,0.0,0.0,96,0.06,,,1.25,Wunderground v.1.15,2013-07-18 22:39:00,
2013-07-18 18:49:00,72.7,71.5,30.11,ESE,117,1.0,1.0,96,0.19,,,1.29,Wunderground v.1.15,2013-07-18 22:49:00,
2013-07-18 18:55:00,72.9,71.7,30.11,SE,139,1.0,3.0,96,0.18,,,1.30,Wunderground v.1.15,2013-07-18 22:55:00,
2013-07-18 19:00:00,72.9,71.4,30.11,SSE,160,1.0,1.0,95,0.19,,,1.32,Wunderground v.1.15,2013-07-18 23:00:00,
2013-07-18 19:10:00,72.8,71.6,30.10,NNE,27,0.0,1.0,96,0.10,,,1.33,Wunderground v.1.15,2013-07-18 23:10:00,
2013-07-18 19:19:00,72.9,71.7,30.10,NE,36,1.0,1.0,96,0.07,,,1.34,Wunderground v.1.15,2013-07-18 23:19:00,
2013-07-18 19:29:00,73.1,71.9,30.10,NNE,33,1.0,1.0,96,0.14,,,1.36,Wunderground v.1.15,2013-07-18 23:29:00,
2013-07-18 19:35:00,73.0,71.8,30.10,NE,47,2.0,2.0,96,0.09,,,1.37,Wunderground v.1.15,2013-07-18 23:35:00,
2013-07-18 19:45:00,73.0,71.8,30.10,NNE,15,0.0,1.0,96,0.30,,,1.40,Wunderground v.1.15,2013-07-18 23:45:00,
2013-07-18 19:54:00,73.1,71.9,30.10,NNE,33,0.0,0.0,96,0.20,,,1.44,Wunderground v.1.15,2013-07-18 23:54:00,
2013-07-18 20:00:00,73.2,72.0,30.10,NNE,33,0.0,0.0,96,0.17,,,1.45,Wunderground v.1.15,2013-07-19 00:00:00,
2013-07-18 20:09:00,73.4,72.2,30.11,NNE,31,0.0,0.0,96,0.14,,,1.48,Wunderground v.1.15,2013-07-19 00:09:00,
2013-07-18 20:20:00,73.5,72.3,30.12,NNE,27,0.0,0.0,96,0.15,,,1.50,Wunderground v.1.15,2013-07-19 00:20:00,
2013-07-18 20:29:00,73.7,72.5,30.12,NNE,22,0.0,3.0,96,0.14,,,1.52,Wunderground v.1.15,2013-07-19 00:29:00,
2013-07-18 20:39:00,73.7,72.5,30.12,East,84,0.0,0.0,96,0.12,,,1.54,Wunderground v.1.15,2013-07-19 00:39:00,
2013-07-18 20:50:00,73.5,72.3,30.11,East,101,1.0,1.0,96,0.12,,,1.56,Wunderground v.1.15,2013-07-19 00:50:00,
2013-07-18 20:55:00,73.3,72.1,30.11,NE,43,1.0,3.0,96,0.09,,,1.57,Wunderground v.1.15,2013-07-19 00:55:00,
2013-07-18 21:00:00,73.3,72.1,30.10,East,83,1.0,1.0,96,0.07,,,1.57,Wunderground v.1.15,2013-07-19 01:00:00,
2013-07-18 21:10:00,73.3,72.1,30.09,ESE,117,0.0,0.0,96,0.04,,,1.58,Wunderground v.1.15,2013-07-19 01:10:00,
2013-07-18 21:19:00,73.5,72.0,30.09,East,91,0.0,0.0,95,0.04,,,1.58,Wunderground v.1.15,2013-07-19 01:19:00,
2013-07-18 21:29:00,73.8,72.3,30.08,East,81,0.0,0.0,95,0.00,,,1.58,Wunderground v.1.15,2013-07-19 01:29:00,
2013-07-18 21:40:00,74.0,72.5,30.08,East,81,0.0,0.0,95,0.00,,,1.58,Wunderground v.1.15,2013-07-19 01:40:00,
2013-07-18 21:49:00,73.9,72.4,30.08,East,81,0.0,0.0,95,0.00,,,1.58,Wunderground v.1.15,2013-07-19 01:49:00,
2013-07-18 22:00:00,73.9,72.4,30.08,East,80,0.0,0.0,95,0.00,,,1.58,Wunderground v.1.15,2013-07-19 02:00:00,
2013-07-18 22:09:00,73.9,72.4,30.08,East,81,0.0,0.0,95,0.00,,,1.58,Wunderground v.1.15,2013-07-19 02:09:00,
2013-07-18 22:20:00,73.8,72.3,30.08,WSW,245,0.0,0.0,95,0.00,,,1.58,Wunderground v.1.15,2013-07-19 02:20:00,
2013-07-18 22:29:00,73.8,72.6,30.08,WSW,245,0.0,0.0,96,0.00,,,1.58,Wunderground v.1.15,2013-07-19 02:29:00,
2013-07-18 22:39:00,73.8,72.6,30.08,WSW,245,0.0,0.0,96,0.00,,,1.58,Wunderground v.1.15,2013-07-19 02:39:00,
2013-07-18 22:50:00,73.9,72.7,30.08,WSW,245,0.0,0.0,96,0.00,,,1.59,Wunderground v.1.15,2013-07-19 02:50:00,
2013-07-18 23:00:00,73.7,72.5,30.09,WSW,246,0.0,0.0,96,0.00,,,1.59,Wunderground v.1.15,2013-07-19 03:00:00,
2013-07-18 23:09:00,74.0,72.8,30.08,WSW,246,0.0,0.0,96,0.00,,,1.59,Wunderground v.1.15,2013-07-19 03:09:00,
2013-07-18 23:14:00,74.0,72.8,30.08,WSW,246,0.0,0.0,96,0.00,,,1.59,Wunderground v.1.15,2013-07-19 03:14:00,
2013-07-18 23:24:00,74.2,73.0,30.09,WSW,246,0.0,0.0,96,0.00,,,1.59,Wunderground v.1.15,2013-07-19 03:24:00,
2013-07-18 23:34:00,74.1,72.9,30.09,WSW,245,0.0,0.0,96,0.00,,,1.59,Wunderground v.1.15,2013-07-19 03:34:00,
2013-07-18 23:40:00,74.2,73.0,30.09,WSW,245,0.0,0.0,96,0.00,,,1.59,Wunderground v.1.15,2013-07-19 03:40:00,
2013-07-18 23:49:00,74.4,73.2,30.10,SE,131,0.0,0.0,96,0.00,,,1.59,Wunderground v.1.15,2013-07-19 03:49:00,